Flight Track Log - Related Links

Times and Time Zones

All times are in EDT time to prevent confusion due to time zone crossing. See the N960DL flight status page for this flight to view local times or setup timezone preferences in your user account.

Time Position Orientation Groundspeed Altitude Reporting Facility
EDT Latitude Longitude Course Direction KTS MPH feet Rate Location/Type
Thu 11:49:54 AM 33.6333 -84.4000 234° Southwest 169 194 2,300  Level Atlanta TRACON
Thu 11:50:55 AM 33.6167 -84.3333 107° East 224 258 4,700 2,529 Climbing Atlanta TRACON
Thu 11:51:55 AM 33.5667 -84.2833 140° Southeast 266 306 7,400 2,517 Climbing Atlanta TRACON
Thu 11:52:00 AM 33.8001 -84.3426 270° West  Level FlightAware Approximate
Thu 11:53:00 AM 33.8001 -84.4733 270° West  Level FlightAware Approximate
Thu 11:53:49 AM 33.4558 -84.3325 200° South 255 293 12,000  Level Atlanta Center
Thu 11:54:00 AM 33.7840 -84.5986 239° Southwest  Level FlightAware Approximate
Thu 11:54:49 AM 33.4553 -84.4572 270° West 282 325 13,400  Level Atlanta Center
Thu 11:55:00 AM 33.7196 -84.7037 234° Southwest  Level FlightAware Approximate
Thu 11:55:49 AM 33.4569 -84.5942 271° West 371 427 15,100  Level Atlanta Center
Thu 11:56:49 AM 33.4603 -84.7386 272° West 411 473 17,800 2,350 Climbing Atlanta Center
Thu 11:57:49 AM 33.4658 -84.8806 273° West 435 501 19,800 1,950 Climbing Atlanta Center
Thu 11:58:49 AM 33.4689 -85.0275 271° West 447 514 21,700 1,750 Climbing Atlanta Center
Thu 11:59:49 AM 33.4717 -85.1819 271° West 447 514 23,300 1,750 Climbing Atlanta Center
Thu 12:00:49 PM 33.4514 -85.3311 261° West 452 520 25,200 1,800 Climbing Atlanta Center
Thu 12:01:49 PM 33.4022 -85.4522 244° Southwest 464 534 26,900 1,500 Climbing Atlanta Center
Thu 12:02:49 PM 33.3069 -85.5650 225° Southwest 454 522 28,200 1,400 Climbing Atlanta Center
Thu 12:03:49 PM 33.2178 -85.6775 227° Southwest 454 522 29,700 900 Climbing Atlanta Center
Thu 12:04:49 PM 33.1328 -85.7928 229° Southwest 460 529 30,000 150 Climbing Atlanta Center
Thu 12:05:49 PM 33.0456 -85.8975 225° Southwest 460 529 30,000  Level Atlanta Center
Thu 12:06:49 PM 32.9583 -86.0094 227° Southwest 460 529 30,000  Level Atlanta Center
Thu 12:07:49 PM 32.8708 -86.1214 227° Southwest 465 535 30,000  Level Atlanta Center
Thu 12:08:49 PM 32.7811 -86.2328 226° Southwest 465 535 30,000  Level Atlanta Center
Thu 12:09:49 PM 32.6917 -86.3417 226° Southwest 465 535 30,000  Level Atlanta Center
Thu 12:10:49 PM 32.6058 -86.4503 227° Southwest 465 535 30,000  Level Atlanta Center
Thu 12:11:49 PM 32.5181 -86.5614 227° Southwest 465 535 30,000  Level Atlanta Center
Thu 12:12:49 PM 32.4322 -86.6744 228° Southwest 465 535 30,000  Level Atlanta Center
Thu 12:13:49 PM 32.3381 -86.7797 223° Southwest 470 541 30,000  Level Atlanta Center
Thu 12:14:49 PM 32.2500 -86.8900 227° Southwest 470 541 30,000  Level Atlanta Center
Thu 12:15:49 PM 32.1619 -86.9978 226° Southwest 470 541 30,000  Level Atlanta Center
Thu 12:16:49 PM 32.0781 -87.0978 225° Southwest 470 541 30,000  Level Atlanta Center
Thu 12:17:49 PM 31.9900 -87.2050 226° Southwest 470 541 30,000  Level Atlanta Center
Thu 12:18:49 PM 31.9017 -87.3119 226° Southwest 470 541 30,000  Level Atlanta Center
Thu 12:19:49 PM 31.8064 -87.4356 228° Southwest 465 535 30,000 -732 Level Atlanta Center
Thu 12:21:33 PM 31.6608 -87.6028 224° Southwest 460 529 28,000 -723 Descending Houston Center
Thu 12:22:35 PM 31.5711 -87.7100 226° Southwest 461 531 28,000  Level Houston Center
Thu 12:23:37 PM 31.4636 -87.8397 226° Southwest 464 534 28,000 -677 Level Houston Center
Thu 12:24:39 PM 31.3739 -87.9478 226° Southwest 463 533 26,600 -1,824 Descending Houston Center
Thu 12:25:42 PM 31.2872 -88.0528 226° Southwest 453 521 24,200 -1,248 Descending Houston Center
Thu 12:26:44 PM 31.2039 -88.1503 225° Southwest 430 495 24,000 -823 Descending Houston Center
Thu 12:27:46 PM 31.1208 -88.2469 225° Southwest 429 494 22,500 -2,032 Descending Houston Center
Thu 12:28:48 PM 31.0264 -88.3572 225° Southwest 421 484 19,800 -2,371 Descending Houston Center
Thu 12:29:50 PM 30.9486 -88.4458 224° Southwest 403 464 17,600 -2,177 Descending Houston Center
Thu 12:30:52 PM 30.8728 -88.5328 225° Southwest 389 448 15,300 -2,226 Descending Houston Center
Thu 12:31:54 PM 30.7994 -88.6178 225° Southwest 378 435 13,000 -2,032 Descending Houston Center
Thu 12:32:56 PM 30.7161 -88.7156 225° Southwest 360 414 11,100 -1,210 Descending Houston Center
Thu 12:33:58 PM 30.6597 -88.7861 227° Southwest 309 356 10,500 -1,104 Descending Houston Center
Thu 12:35:01 PM 30.6253 -88.8714 245° Southwest 294 338 8,800 -1,728 Descending Houston Center
Thu 12:36:03 PM 30.6028 -88.9658 255° West 289 333 6,900 -1,839 Descending Houston Center
Thu 12:37:05 PM 30.6078 -89.0581 274° West 289 333 5,000 -1,790 Descending Houston Center
Thu 12:38:07 PM 30.6083 -89.1475 270° West 282 325 3,200 -1,306 Descending Houston Center
Thu 12:39:09 PM 30.5911 -89.2253 256° West 254 292 2,300 -581 Descending Houston Center
Thu 12:40:11 PM 30.5503 -89.2453 203° Southwest 212 244 2,000 -290 Descending Houston Center

Login

Don't have an account? Register now (free) for customized features, flight alerts, and more!